sensor_id;sensor_type;location;lat;lon;timestamp;P1;durP1;ratioP1;P2;durP2;ratioP2
65605;SDS011;52276;48.906;2.384;2022-08-16T00:00:46;1.07;;;0.34;;
65605;SDS011;52276;48.906;2.384;2022-08-16T00:01:46;0.98;;;0.24;;
65605;SDS011;52276;48.906;2.384;2022-08-16T00:02:46;1.16;;;0.45;;
65605;SDS011;52276;48.906;2.384;2022-08-16T00:03:46;0.97;;;0.3;;
65605;SDS011;52276;48.906;2.384;2022-08-16T00:04:46;1.12;;;0.49;;
65605;SDS011;52276;48.906;2.384;2022-08-16T00:05:46;1.39;;;0.53;;
65605;SDS011;52276;48.906;2.384;2022-08-16T00:06:46;1.08;;;0.37;;
65605;SDS011;52276;48.906;2.384;2022-08-16T00:07:46;1.25;;;0.39;;
65605;SDS011;52276;48.906;2.384;2022-08-16T00:08:46;1.25;;;0.45;;
65605;SDS011;52276;48.906;2.384;2022-08-16T00:09:46;1.07;;;0.26;;
65605;SDS011;52276;48.906;2.384;2022-08-16T00:10:46;1.17;;;0.32;;
65605;SDS011;52276;48.906;2.384;2022-08-16T00:11:46;0.94;;;0.23;;
65605;SDS011;52276;48.906;2.384;2022-08-16T00:12:46;1.06;;;0.3;;
65605;SDS011;52276;48.906;2.384;2022-08-16T00:13:46;1.05;;;0.29;;
65605;SDS011;52276;48.906;2.384;2022-08-16T00:14:46;1.11;;;0.26;;
65605;SDS011;52276;48.906;2.384;2022-08-16T00:15:47;1.31;;;0.35;;
65605;SDS011;52276;48.906;2.384;2022-08-16T00:16:46;1.1;;;0.35;;
65605;SDS011;52276;48.906;2.384;2022-08-16T00:17:46;1.14;;;0.32;;
65605;SDS011;52276;48.906;2.384;2022-08-16T00:18:46;1.11;;;0.32;;
65605;SDS011;52276;48.906;2.384;2022-08-16T00:19:46;1.14;;;0.34;;
65605;SDS011;52276;48.906;2.384;2022-08-16T00:20:46;1.28;;;0.43;;
65605;SDS011;52276;48.906;2.384;2022-08-16T00:21:46;1.04;;;0.33;;
65605;SDS011;52276;48.906;2.384;2022-08-16T00:22:46;1.16;;;0.4;;
65605;SDS011;52276;48.906;2.384;2022-08-16T00:23:46;1.14;;;0.43;;
65605;SDS011;52276;48.906;2.384;2022-08-16T00:24:46;1.17;;;0.29;;
65605;SDS011;52276;48.906;2.384;2022-08-16T00:25:46;1.25;;;0.38;;
65605;SDS011;52276;48.906;2.384;2022-08-16T00:26:46;1.09;;;0.39;;
65605;SDS011;52276;48.906;2.384;2022-08-16T00:27:46;1.12;;;0.4;;
65605;SDS011;52276;48.906;2.384;2022-08-16T00:28:46;0.98;;;0.25;;
65605;SDS011;52276;48.906;2.384;2022-08-16T00:29:46;1.06;;;0.28;;
65605;SDS011;52276;48.906;2.384;2022-08-16T00:30:46;1.17;;;0.39;;
65605;SDS011;52276;48.906;2.384;2022-08-16T00:31:47;1.09;;;0.26;;
65605;SDS011;52276;48.906;2.384;2022-08-16T00:32:47;1.12;;;0.35;;
65605;SDS011;52276;48.906;2.384;2022-08-16T00:33:46;1.18;;;0.39;;
65605;SDS011;52276;48.906;2.384;2022-08-16T00:34:46;1.06;;;0.35;;
65605;SDS011;52276;48.906;2.384;2022-08-16T00:35:46;1.05;;;0.34;;
65605;SDS011;52276;48.906;2.384;2022-08-16T00:36:46;1.09;;;0.35;;
65605;SDS011;52276;48.906;2.384;2022-08-16T00:37:46;1.15;;;0.4;;
65605;SDS011;52276;48.906;2.384;2022-08-16T00:38:46;1.16;;;0.37;;
65605;SDS011;52276;48.906;2.384;2022-08-16T00:39:47;1.17;;;0.34;;
65605;SDS011;52276;48.906;2.384;2022-08-16T00:40:47;1.32;;;0.38;;
65605;SDS011;52276;48.906;2.384;2022-08-16T00:41:47;1.29;;;0.38;;
65605;SDS011;52276;48.906;2.384;2022-08-16T00:42:46;1.28;;;0.42;;
65605;SDS011;52276;48.906;2.384;2022-08-16T00:43:46;1.18;;;0.4;;
65605;SDS011;52276;48.906;2.384;2022-08-16T00:44:48;1.15;;;0.36;;
65605;SDS011;52276;48.906;2.384;2022-08-16T00:45:47;1.27;;;0.35;;
65605;SDS011;52276;48.906;2.384;2022-08-16T00:46:48;1.11;;;0.34;;
65605;SDS011;52276;48.906;2.384;2022-08-16T00:47:46;1.11;;;0.39;;
65605;SDS011;52276;48.906;2.384;2022-08-16T00:48:47;2.71;;;0.46;;
65605;SDS011;52276;48.906;2.384;2022-08-16T00:49:46;1.16;;;0.43;;
65605;SDS011;52276;48.906;2.384;2022-08-16T00:50:46;1.15;;;0.41;;
65605;SDS011;52276;48.906;2.384;2022-08-16T00:51:46;1.05;;;0.32;;
65605;SDS011;52276;48.906;2.384;2022-08-16T00:52:46;1.11;;;0.34;;
65605;SDS011;52276;48.906;2.384;2022-08-16T00:53:46;1.11;;;0.32;;
65605;SDS011;52276;48.906;2.384;2022-08-16T00:54:46;1.09;;;0.33;;
65605;SDS011;52276;48.906;2.384;2022-08-16T00:55:47;1.16;;;0.34;;
65605;SDS011;52276;48.906;2.384;2022-08-16T00:56:46;1.33;;;0.41;;
65605;SDS011;52276;48.906;2.384;2022-08-16T00:57:46;1.3;;;0.47;;
65605;SDS011;52276;48.906;2.384;2022-08-16T00:58:46;1.15;;;0.38;;
65605;SDS011;52276;48.906;2.384;2022-08-16T00:59:46;1.14;;;0.36;;
65605;SDS011;52276;48.906;2.384;2022-08-16T01:00:46;1.49;;;0.41;;
65605;SDS011;52276;48.906;2.384;2022-08-16T01:01:46;1.13;;;0.32;;
65605;SDS011;52276;48.906;2.384;2022-08-16T01:02:46;1.09;;;0.41;;
65605;SDS011;52276;48.906;2.384;2022-08-16T01:03:47;1.22;;;0.42;;
65605;SDS011;52276;48.906;2.384;2022-08-16T01:04:46;1.11;;;0.37;;
65605;SDS011;52276;48.906;2.384;2022-08-16T01:05:46;1.48;;;0.42;;
65605;SDS011;52276;48.906;2.384;2022-08-16T01:06:46;1.55;;;0.44;;
65605;SDS011;52276;48.906;2.384;2022-08-16T01:07:46;1.23;;;0.4;;
65605;SDS011;52276;48.906;2.384;2022-08-16T01:08:47;1.07;;;0.29;;
65605;SDS011;52276;48.906;2.384;2022-08-16T01:09:46;1.08;;;0.33;;
65605;SDS011;52276;48.906;2.384;2022-08-16T01:10:46;1.08;;;0.37;;
65605;SDS011;52276;48.906;2.384;2022-08-16T01:11:46;1.31;;;0.47;;
65605;SDS011;52276;48.906;2.384;2022-08-16T01:12:46;1.25;;;0.4;;
65605;SDS011;52276;48.906;2.384;2022-08-16T01:13:46;1.53;;;0.4;;
65605;SDS011;52276;48.906;2.384;2022-08-16T01:14:47;1.43;;;0.29;;
65605;SDS011;52276;48.906;2.384;2022-08-16T01:15:48;1.06;;;0.24;;
65605;SDS011;52276;48.906;2.384;2022-08-16T01:16:46;1.32;;;0.39;;
65605;SDS011;52276;48.906;2.384;2022-08-16T01:17:46;1.15;;;0.29;;
65605;SDS011;52276;48.906;2.384;2022-08-16T01:18:47;1.14;;;0.36;;
65605;SDS011;52276;48.906;2.384;2022-08-16T01:19:47;1.21;;;0.43;;
65605;SDS011;52276;48.906;2.384;2022-08-16T01:20:47;1.11;;;0.35;;
65605;SDS011;52276;48.906;2.384;2022-08-16T01:21:49;1.21;;;0.4;;
65605;SDS011;52276;48.906;2.384;2022-08-16T01:22:54;1.23;;;0.5;;
65605;SDS011;52276;48.906;2.384;2022-08-16T01:23:51;1.02;;;0.34;;
65605;SDS011;52276;48.906;2.384;2022-08-16T01:24:47;1.65;;;0.4;;
65605;SDS011;52276;48.906;2.384;2022-08-16T01:25:47;1.33;;;0.35;;
65605;SDS011;52276;48.906;2.384;2022-08-16T01:26:46;1.28;;;0.46;;
65605;SDS011;52276;48.906;2.384;2022-08-16T01:27:48;1.05;;;0.36;;
65605;SDS011;52276;48.906;2.384;2022-08-16T01:28:46;1.23;;;0.41;;
65605;SDS011;52276;48.906;2.384;2022-08-16T01:29:47;1.04;;;0.31;;
65605;SDS011;52276;48.906;2.384;2022-08-16T01:30:48;1.21;;;0.26;;
65605;SDS011;52276;48.906;2.384;2022-08-16T01:31:46;1.62;;;0.46;;
65605;SDS011;52276;48.906;2.384;2022-08-16T01:32:46;1.33;;;0.37;;
65605;SDS011;52276;48.906;2.384;2022-08-16T01:33:46;1.1;;;0.31;;
65605;SDS011;52276;48.906;2.384;2022-08-16T01:34:46;1.26;;;0.41;;
65605;SDS011;52276;48.906;2.384;2022-08-16T01:35:47;1.08;;;0.29;;
65605;SDS011;52276;48.906;2.384;2022-08-16T01:36:46;0.97;;;0.23;;
65605;SDS011;52276;48.906;2.384;2022-08-16T01:37:47;1.03;;;0.26;;
65605;SDS011;52276;48.906;2.384;2022-08-16T01:38:48;0.96;;;0.28;;
65605;SDS011;52276;48.906;2.384;2022-08-16T01:39:46;1.12;;;0.39;;
65605;SDS011;52276;48.906;2.384;2022-08-16T01:40:47;1.09;;;0.35;;
65605;SDS011;52276;48.906;2.384;2022-08-16T01:41:47;1.14;;;0.41;;
65605;SDS011;52276;48.906;2.384;2022-08-16T01:42:47;1.1;;;0.37;;
65605;SDS011;52276;48.906;2.384;2022-08-16T01:43:47;1.21;;;0.35;;
65605;SDS011;52276;48.906;2.384;2022-08-16T01:44:46;1.19;;;0.32;;
65605;SDS011;52276;48.906;2.384;2022-08-16T01:45:46;1.27;;;0.32;;
65605;SDS011;52276;48.906;2.384;2022-08-16T01:46:47;2.24;;;0.54;;
65605;SDS011;52276;48.906;2.384;2022-08-16T01:47:47;1.16;;;0.36;;
65605;SDS011;52276;48.906;2.384;2022-08-16T01:48:46;1.32;;;0.62;;
65605;SDS011;52276;48.906;2.384;2022-08-16T01:49:46;1.3;;;0.48;;
65605;SDS011;52276;48.906;2.384;2022-08-16T01:50:46;1.21;;;0.34;;
65605;SDS011;52276;48.906;2.384;2022-08-16T01:51:47;1.02;;;0.28;;
65605;SDS011;52276;48.906;2.384;2022-08-16T01:52:46;1.08;;;0.33;;
65605;SDS011;52276;48.906;2.384;2022-08-16T01:53:46;1.22;;;0.42;;
65605;SDS011;52276;48.906;2.384;2022-08-16T01:54:46;1.19;;;0.41;;
65605;SDS011;52276;48.906;2.384;2022-08-16T01:55:46;1.24;;;0.53;;
65605;SDS011;52276;48.906;2.384;2022-08-16T01:56:46;1.08;;;0.35;;
65605;SDS011;52276;48.906;2.384;2022-08-16T01:57:46;1.2;;;0.34;;
65605;SDS011;52276;48.906;2.384;2022-08-16T01:58:46;1.17;;;0.38;;
65605;SDS011;52276;48.906;2.384;2022-08-16T01:59:46;1.15;;;0.33;;
65605;SDS011;52276;48.906;2.384;2022-08-16T02:00:46;1.12;;;0.49;;
65605;SDS011;52276;48.906;2.384;2022-08-16T02:01:47;1.15;;;0.38;;
65605;SDS011;52276;48.906;2.384;2022-08-16T02:02:46;1.46;;;0.3;;
65605;SDS011;52276;48.906;2.384;2022-08-16T02:03:46;1.35;;;0.29;;
65605;SDS011;52276;48.906;2.384;2022-08-16T02:04:46;1.04;;;0.29;;
65605;SDS011;52276;48.906;2.384;2022-08-16T02:05:46;1.23;;;0.48;;
65605;SDS011;52276;48.906;2.384;2022-08-16T02:06:46;0.95;;;0.32;;
65605;SDS011;52276;48.906;2.384;2022-08-16T02:07:46;1.08;;;0.32;;
65605;SDS011;52276;48.906;2.384;2022-08-16T02:08:46;0.98;;;0.29;;
65605;SDS011;52276;48.906;2.384;2022-08-16T02:09:46;1.07;;;0.29;;
65605;SDS011;52276;48.906;2.384;2022-08-16T02:10:46;1.15;;;0.35;;
65605;SDS011;52276;48.906;2.384;2022-08-16T02:11:47;1.57;;;0.5;;
65605;SDS011;52276;48.906;2.384;2022-08-16T02:12:46;1.2;;;0.47;;
65605;SDS011;52276;48.906;2.384;2022-08-16T02:13:46;1.39;;;0.36;;
65605;SDS011;52276;48.906;2.384;2022-08-16T02:14:46;1.14;;;0.38;;
65605;SDS011;52276;48.906;2.384;2022-08-16T02:15:46;1.03;;;0.28;;
65605;SDS011;52276;48.906;2.384;2022-08-16T02:16:47;1.17;;;0.3;;
65605;SDS011;52276;48.906;2.384;2022-08-16T02:17:46;1.26;;;0.39;;
65605;SDS011;52276;48.906;2.384;2022-08-16T02:18:46;1.21;;;0.37;;
65605;SDS011;52276;48.906;2.384;2022-08-16T02:19:46;1.19;;;0.41;;
65605;SDS011;52276;48.906;2.384;2022-08-16T02:20:47;1.29;;;0.48;;
65605;SDS011;52276;48.906;2.384;2022-08-16T02:21:49;1.17;;;0.42;;
65605;SDS011;52276;48.906;2.384;2022-08-16T02:22:46;1.14;;;0.41;;
65605;SDS011;52276;48.906;2.384;2022-08-16T02:23:46;1.14;;;0.4;;
65605;SDS011;52276;48.906;2.384;2022-08-16T02:24:46;1.44;;;0.57;;
65605;SDS011;52276;48.906;2.384;2022-08-16T02:25:46;1.57;;;0.46;;
65605;SDS011;52276;48.906;2.384;2022-08-16T02:26:46;1.29;;;0.46;;
65605;SDS011;52276;48.906;2.384;2022-08-16T02:27:46;1.37;;;0.36;;
65605;SDS011;52276;48.906;2.384;2022-08-16T02:28:46;1.31;;;0.55;;
65605;SDS011;52276;48.906;2.384;2022-08-16T02:29:46;1.17;;;0.43;;
65605;SDS011;52276;48.906;2.384;2022-08-16T02:30:46;1.21;;;0.34;;
65605;SDS011;52276;48.906;2.384;2022-08-16T02:31:47;1.2;;;0.47;;
65605;SDS011;52276;48.906;2.384;2022-08-16T02:32:46;1.11;;;0.44;;
65605;SDS011;52276;48.906;2.384;2022-08-16T02:33:47;1.02;;;0.37;;
65605;SDS011;52276;48.906;2.384;2022-08-16T02:34:46;1.32;;;0.5;;
65605;SDS011;52276;48.906;2.384;2022-08-16T02:35:46;1.19;;;0.39;;
65605;SDS011;52276;48.906;2.384;2022-08-16T02:36:46;1.27;;;0.36;;
65605;SDS011;52276;48.906;2.384;2022-08-16T02:37:46;1.08;;;0.26;;
65605;SDS011;52276;48.906;2.384;2022-08-16T02:38:46;1.15;;;0.42;;
65605;SDS011;52276;48.906;2.384;2022-08-16T02:39:46;1.34;;;0.41;;
65605;SDS011;52276;48.906;2.384;2022-08-16T02:40:46;1.14;;;0.37;;
65605;SDS011;52276;48.906;2.384;2022-08-16T02:41:47;1.24;;;0.38;;
65605;SDS011;52276;48.906;2.384;2022-08-16T02:42:47;1.09;;;0.3;;
65605;SDS011;52276;48.906;2.384;2022-08-16T02:43:46;1.23;;;0.29;;
65605;SDS011;52276;48.906;2.384;2022-08-16T02:44:46;1.18;;;0.34;;
65605;SDS011;52276;48.906;2.384;2022-08-16T02:45:46;1.19;;;0.41;;
65605;SDS011;52276;48.906;2.384;2022-08-16T02:46:46;1.09;;;0.38;;
65605;SDS011;52276;48.906;2.384;2022-08-16T02:47:46;1.27;;;0.35;;
65605;SDS011;52276;48.906;2.384;2022-08-16T02:48:46;2.05;;;0.44;;
65605;SDS011;52276;48.906;2.384;2022-08-16T02:49:46;1.06;;;0.32;;
65605;SDS011;52276;48.906;2.384;2022-08-16T02:50:46;1.63;;;0.43;;
65605;SDS011;52276;48.906;2.384;2022-08-16T02:51:46;1.18;;;0.34;;
65605;SDS011;52276;48.906;2.384;2022-08-16T02:52:46;1.24;;;0.42;;
65605;SDS011;52276;48.906;2.384;2022-08-16T02:53:46;1.22;;;0.37;;
65605;SDS011;52276;48.906;2.384;2022-08-16T02:54:46;1.1;;;0.39;;
65605;SDS011;52276;48.906;2.384;2022-08-16T02:55:46;1.24;;;0.47;;
65605;SDS011;52276;48.906;2.384;2022-08-16T02:56:46;1.17;;;0.42;;
65605;SDS011;52276;48.906;2.384;2022-08-16T02:57:46;1.05;;;0.32;;
65605;SDS011;52276;48.906;2.384;2022-08-16T02:58:47;1.05;;;0.41;;
65605;SDS011;52276;48.906;2.384;2022-08-16T02:59:46;1.09;;;0.39;;
65605;SDS011;52276;48.906;2.384;2022-08-16T03:00:46;1.13;;;0.37;;
65605;SDS011;52276;48.906;2.384;2022-08-16T03:01:46;1.04;;;0.28;;
65605;SDS011;52276;48.906;2.384;2022-08-16T03:02:46;1.29;;;0.48;;
65605;SDS011;52276;48.906;2.384;2022-08-16T03:03:46;2.18;;;0.64;;
65605;SDS011;52276;48.906;2.384;2022-08-16T03:04:46;1.15;;;0.42;;
65605;SDS011;52276;48.906;2.384;2022-08-16T03:05:46;1.25;;;0.44;;
65605;SDS011;52276;48.906;2.384;2022-08-16T03:06:46;1.07;;;0.28;;
65605;SDS011;52276;48.906;2.384;2022-08-16T03:07:46;1.43;;;0.47;;
65605;SDS011;52276;48.906;2.384;2022-08-16T03:08:47;1.39;;;0.42;;
65605;SDS011;52276;48.906;2.384;2022-08-16T03:09:46;1.52;;;0.44;;
65605;SDS011;52276;48.906;2.384;2022-08-16T03:10:46;1.79;;;0.66;;
65605;SDS011;52276;48.906;2.384;2022-08-16T03:11:46;1.56;;;0.56;;
65605;SDS011;52276;48.906;2.384;2022-08-16T03:12:46;1.01;;;0.27;;
65605;SDS011;52276;48.906;2.384;2022-08-16T03:13:50;1.07;;;0.34;;
65605;SDS011;52276;48.906;2.384;2022-08-16T03:14:46;1.09;;;0.36;;
65605;SDS011;52276;48.906;2.384;2022-08-16T03:15:46;1.28;;;0.33;;
65605;SDS011;52276;48.906;2.384;2022-08-16T03:16:46;1.29;;;0.43;;
65605;SDS011;52276;48.906;2.384;2022-08-16T03:17:46;1.32;;;0.48;;
65605;SDS011;52276;48.906;2.384;2022-08-16T03:18:46;1.16;;;0.3;;
65605;SDS011;52276;48.906;2.384;2022-08-16T03:19:46;1.1;;;0.27;;
65605;SDS011;52276;48.906;2.384;2022-08-16T03:20:46;1.19;;;0.38;;
65605;SDS011;52276;48.906;2.384;2022-08-16T03:21:46;1.35;;;0.31;;
65605;SDS011;52276;48.906;2.384;2022-08-16T03:22:46;1.09;;;0.32;;
65605;SDS011;52276;48.906;2.384;2022-08-16T03:23:46;1.07;;;0.33;;
65605;SDS011;52276;48.906;2.384;2022-08-16T03:24:46;1.13;;;0.35;;
65605;SDS011;52276;48.906;2.384;2022-08-16T03:25:46;1.14;;;0.38;;
65605;SDS011;52276;48.906;2.384;2022-08-16T03:26:46;0.98;;;0.23;;
65605;SDS011;52276;48.906;2.384;2022-08-16T03:27:46;1.16;;;0.35;;
65605;SDS011;52276;48.906;2.384;2022-08-16T03:28:46;1.43;;;0.39;;
65605;SDS011;52276;48.906;2.384;2022-08-16T03:29:46;1.43;;;0.47;;
65605;SDS011;52276;48.906;2.384;2022-08-16T03:30:46;1.21;;;0.37;;
65605;SDS011;52276;48.906;2.384;2022-08-16T03:31:46;1.06;;;0.3;;
65605;SDS011;52276;48.906;2.384;2022-08-16T03:32:47;1.11;;;0.33;;
65605;SDS011;52276;48.906;2.384;2022-08-16T03:33:46;1.28;;;0.48;;
65605;SDS011;52276;48.906;2.384;2022-08-16T03:34:46;1.14;;;0.47;;
65605;SDS011;52276;48.906;2.384;2022-08-16T03:35:46;1.1;;;0.37;;
65605;SDS011;52276;48.906;2.384;2022-08-16T03:36:46;1.19;;;0.38;;
65605;SDS011;52276;48.906;2.384;2022-08-16T03:37:47;1.09;;;0.23;;
65605;SDS011;52276;48.906;2.384;2022-08-16T03:38:46;1.17;;;0.27;;
65605;SDS011;52276;48.906;2.384;2022-08-16T03:39:46;1.14;;;0.35;;
65605;SDS011;52276;48.906;2.384;2022-08-16T03:40:46;1;;;0.31;;
65605;SDS011;52276;48.906;2.384;2022-08-16T03:41:47;1.1;;;0.34;;
65605;SDS011;52276;48.906;2.384;2022-08-16T03:42:46;1.13;;;0.34;;
65605;SDS011;52276;48.906;2.384;2022-08-16T03:43:46;1.26;;;0.38;;
65605;SDS011;52276;48.906;2.384;2022-08-16T03:44:46;1.24;;;0.35;;
65605;SDS011;52276;48.906;2.384;2022-08-16T03:45:47;1.19;;;0.36;;
65605;SDS011;52276;48.906;2.384;2022-08-16T03:46:46;1.08;;;0.35;;
65605;SDS011;52276;48.906;2.384;2022-08-16T03:47:46;1.21;;;0.43;;
65605;SDS011;52276;48.906;2.384;2022-08-16T03:48:47;1.23;;;0.35;;
65605;SDS011;52276;48.906;2.384;2022-08-16T03:49:47;1.23;;;0.41;;
65605;SDS011;52276;48.906;2.384;2022-08-16T03:50:46;0.97;;;0.25;;
65605;SDS011;52276;48.906;2.384;2022-08-16T03:51:46;1.19;;;0.43;;
65605;SDS011;52276;48.906;2.384;2022-08-16T03:52:46;1.52;;;0.52;;
65605;SDS011;52276;48.906;2.384;2022-08-16T03:53:46;1.03;;;0.32;;
65605;SDS011;52276;48.906;2.384;2022-08-16T03:54:46;1.22;;;0.47;;
65605;SDS011;52276;48.906;2.384;2022-08-16T03:55:46;1.2;;;0.33;;
65605;SDS011;52276;48.906;2.384;2022-08-16T03:56:46;1.07;;;0.35;;
65605;SDS011;52276;48.906;2.384;2022-08-16T03:57:47;1.08;;;0.35;;
65605;SDS011;52276;48.906;2.384;2022-08-16T03:58:47;1.09;;;0.38;;
65605;SDS011;52276;48.906;2.384;2022-08-16T03:59:47;1.35;;;0.41;;
65605;SDS011;52276;48.906;2.384;2022-08-16T04:00:47;1.35;;;0.42;;
65605;SDS011;52276;48.906;2.384;2022-08-16T04:01:47;1.2;;;0.34;;
65605;SDS011;52276;48.906;2.384;2022-08-16T04:02:47;1.82;;;0.48;;
65605;SDS011;52276;48.906;2.384;2022-08-16T04:03:47;2.25;;;0.65;;
65605;SDS011;52276;48.906;2.384;2022-08-16T04:04:47;2.11;;;0.25;;
65605;SDS011;52276;48.906;2.384;2022-08-16T04:05:47;1.05;;;0.21;;
65605;SDS011;52276;48.906;2.384;2022-08-16T04:06:47;1.13;;;0.22;;
65605;SDS011;52276;48.906;2.384;2022-08-16T04:07:47;1.07;;;0.23;;
65605;SDS011;52276;48.906;2.384;2022-08-16T04:08:47;1.03;;;0.21;;
65605;SDS011;52276;48.906;2.384;2022-08-16T04:09:47;0.98;;;0.15;;
65605;SDS011;52276;48.906;2.384;2022-08-16T04:10:47;0.89;;;0.13;;
65605;SDS011;52276;48.906;2.384;2022-08-16T04:11:47;0.84;;;0.14;;
65605;SDS011;52276;48.906;2.384;2022-08-16T04:12:47;1.09;;;0.19;;
65605;SDS011;52276;48.906;2.384;2022-08-16T04:13:47;1.27;;;0.36;;
65605;SDS011;52276;48.906;2.384;2022-08-16T04:14:47;1.1;;;0.21;;
65605;SDS011;52276;48.906;2.384;2022-08-16T04:15:47;0.97;;;0.18;;
65605;SDS011;52276;48.906;2.384;2022-08-16T04:16:47;1.07;;;0.25;;
65605;SDS011;52276;48.906;2.384;2022-08-16T04:17:47;1;;;0.21;;
65605;SDS011;52276;48.906;2.384;2022-08-16T04:18:47;1.04;;;0.24;;
65605;SDS011;52276;48.906;2.384;2022-08-16T04:19:47;1.02;;;0.17;;
65605;SDS011;52276;48.906;2.384;2022-08-16T04:20:47;1.1;;;0.19;;
65605;SDS011;52276;48.906;2.384;2022-08-16T04:21:47;0.98;;;0.22;;
65605;SDS011;52276;48.906;2.384;2022-08-16T04:22:47;0.91;;;0.19;;
65605;SDS011;52276;48.906;2.384;2022-08-16T04:23:47;1.12;;;0.25;;
65605;SDS011;52276;48.906;2.384;2022-08-16T04:24:47;1.03;;;0.22;;
65605;SDS011;52276;48.906;2.384;2022-08-16T04:25:47;0.91;;;0.16;;
65605;SDS011;52276;48.906;2.384;2022-08-16T04:26:47;1.05;;;0.22;;
65605;SDS011;52276;48.906;2.384;2022-08-16T04:27:47;2.23;;;0.34;;
65605;SDS011;52276;48.906;2.384;2022-08-16T04:28:47;1.86;;;0.26;;
65605;SDS011;52276;48.906;2.384;2022-08-16T04:29:47;1.07;;;0.22;;
65605;SDS011;52276;48.906;2.384;2022-08-16T04:30:47;1.42;;;0.33;;
65605;SDS011;52276;48.906;2.384;2022-08-16T04:31:47;1.29;;;0.29;;
65605;SDS011;52276;48.906;2.384;2022-08-16T04:32:47;1.09;;;0.31;;
65605;SDS011;52276;48.906;2.384;2022-08-16T04:33:47;0.97;;;0.19;;
65605;SDS011;52276;48.906;2.384;2022-08-16T04:34:47;1.04;;;0.23;;
65605;SDS011;52276;48.906;2.384;2022-08-16T04:35:47;1;;;0.2;;
65605;SDS011;52276;48.906;2.384;2022-08-16T04:36:47;0.95;;;0.19;;
65605;SDS011;52276;48.906;2.384;2022-08-16T04:37:47;0.96;;;0.17;;
65605;SDS011;52276;48.906;2.384;2022-08-16T04:38:47;1;;;0.19;;
65605;SDS011;52276;48.906;2.384;2022-08-16T04:39:47;0.91;;;0.2;;
65605;SDS011;52276;48.906;2.384;2022-08-16T04:40:47;0.93;;;0.26;;
65605;SDS011;52276;48.906;2.384;2022-08-16T04:41:47;1.04;;;0.22;;
65605;SDS011;52276;48.906;2.384;2022-08-16T04:42:47;1.08;;;0.27;;
65605;SDS011;52276;48.906;2.384;2022-08-16T04:43:47;0.96;;;0.16;;
65605;SDS011;52276;48.906;2.384;2022-08-16T04:44:47;0.9;;;0.14;;
65605;SDS011;52276;48.906;2.384;2022-08-16T04:45:47;0.93;;;0.2;;
65605;SDS011;52276;48.906;2.384;2022-08-16T04:46:47;0.98;;;0.21;;
65605;SDS011;52276;48.906;2.384;2022-08-16T04:47:47;1.1;;;0.27;;
65605;SDS011;52276;48.906;2.384;2022-08-16T04:48:47;0.96;;;0.2;;
65605;SDS011;52276;48.906;2.384;2022-08-16T04:49:47;0.99;;;0.21;;
65605;SDS011;52276;48.906;2.384;2022-08-16T04:50:47;1.21;;;0.22;;
65605;SDS011;52276;48.906;2.384;2022-08-16T04:51:47;1.08;;;0.19;;
65605;SDS011;52276;48.906;2.384;2022-08-16T04:52:47;0.87;;;0.1;;
65605;SDS011;52276;48.906;2.384;2022-08-16T04:53:47;1.63;;;0.27;;
65605;SDS011;52276;48.906;2.384;2022-08-16T04:54:47;0.95;;;0.15;;
65605;SDS011;52276;48.906;2.384;2022-08-16T04:55:47;0.92;;;0.2;;
65605;SDS011;52276;48.906;2.384;2022-08-16T04:56:47;1;;;0.23;;
65605;SDS011;52276;48.906;2.384;2022-08-16T04:57:47;0.83;;;0.15;;
65605;SDS011;52276;48.906;2.384;2022-08-16T04:58:47;1.14;;;0.27;;
65605;SDS011;52276;48.906;2.384;2022-08-16T04:59:47;1.01;;;0.2;;
65605;SDS011;52276;48.906;2.384;2022-08-16T05:00:47;0.96;;;0.16;;
65605;SDS011;52276;48.906;2.384;2022-08-16T05:01:47;1.02;;;0.2;;
65605;SDS011;52276;48.906;2.384;2022-08-16T05:02:47;0.94;;;0.16;;
65605;SDS011;52276;48.906;2.384;2022-08-16T05:03:47;0.88;;;0.15;;
65605;SDS011;52276;48.906;2.384;2022-08-16T05:04:47;1.21;;;0.33;;
65605;SDS011;52276;48.906;2.384;2022-08-16T05:05:47;1.06;;;0.26;;
65605;SDS011;52276;48.906;2.384;2022-08-16T05:06:47;0.94;;;0.17;;
65605;SDS011;52276;48.906;2.384;2022-08-16T05:07:47;1.09;;;0.17;;
65605;SDS011;52276;48.906;2.384;2022-08-16T05:08:47;0.95;;;0.18;;
65605;SDS011;52276;48.906;2.384;2022-08-16T05:09:47;1.03;;;0.19;;
65605;SDS011;52276;48.906;2.384;2022-08-16T05:10:47;0.96;;;0.18;;
65605;SDS011;52276;48.906;2.384;2022-08-16T05:11:47;1.4;;;0.4;;
65605;SDS011;52276;48.906;2.384;2022-08-16T05:12:47;1.05;;;0.22;;
65605;SDS011;52276;48.906;2.384;2022-08-16T05:13:47;1.04;;;0.16;;
65605;SDS011;52276;48.906;2.384;2022-08-16T05:14:47;0.98;;;0.19;;
65605;SDS011;52276;48.906;2.384;2022-08-16T05:15:47;0.99;;;0.21;;
65605;SDS011;52276;48.906;2.384;2022-08-16T05:16:47;0.96;;;0.19;;
65605;SDS011;52276;48.906;2.384;2022-08-16T05:17:47;0.9;;;0.18;;
65605;SDS011;52276;48.906;2.384;2022-08-16T05:18:47;0.87;;;0.18;;
65605;SDS011;52276;48.906;2.384;2022-08-16T05:19:47;1.04;;;0.2;;
65605;SDS011;52276;48.906;2.384;2022-08-16T05:20:47;0.99;;;0.2;;
65605;SDS011;52276;48.906;2.384;2022-08-16T05:21:47;1.04;;;0.36;;
65605;SDS011;52276;48.906;2.384;2022-08-16T05:22:47;1.11;;;0.23;;
65605;SDS011;52276;48.906;2.384;2022-08-16T05:23:47;0.96;;;0.2;;
65605;SDS011;52276;48.906;2.384;2022-08-16T05:24:47;0.76;;;0.08;;
65605;SDS011;52276;48.906;2.384;2022-08-16T05:25:47;0.89;;;0.15;;
65605;SDS011;52276;48.906;2.384;2022-08-16T05:26:47;0.91;;;0.16;;
65605;SDS011;52276;48.906;2.384;2022-08-16T05:27:47;1.24;;;0.31;;
65605;SDS011;52276;48.906;2.384;2022-08-16T05:28:47;1.08;;;0.32;;
65605;SDS011;52276;48.906;2.384;2022-08-16T05:29:47;0.98;;;0.18;;
65605;SDS011;52276;48.906;2.384;2022-08-16T05:30:47;1.32;;;0.32;;
65605;SDS011;52276;48.906;2.384;2022-08-16T05:31:47;1.07;;;0.19;;
65605;SDS011;52276;48.906;2.384;2022-08-16T05:32:47;0.95;;;0.13;;
65605;SDS011;52276;48.906;2.384;2022-08-16T05:33:47;0.82;;;0.13;;
65605;SDS011;52276;48.906;2.384;2022-08-16T05:34:47;0.78;;;0.11;;
65605;SDS011;52276;48.906;2.384;2022-08-16T05:35:47;0.87;;;0.15;;
65605;SDS011;52276;48.906;2.384;2022-08-16T05:36:47;1.05;;;0.22;;
65605;SDS011;52276;48.906;2.384;2022-08-16T05:37:47;0.91;;;0.12;;
65605;SDS011;52276;48.906;2.384;2022-08-16T05:38:47;1.17;;;0.24;;
65605;SDS011;52276;48.906;2.384;2022-08-16T05:39:47;0.85;;;0.12;;
65605;SDS011;52276;48.906;2.384;2022-08-16T05:40:47;1.19;;;0.17;;
65605;SDS011;52276;48.906;2.384;2022-08-16T05:41:47;1.06;;;0.23;;
65605;SDS011;52276;48.906;2.384;2022-08-16T05:42:47;0.96;;;0.2;;
65605;SDS011;52276;48.906;2.384;2022-08-16T05:43:47;1.04;;;0.19;;
65605;SDS011;52276;48.906;2.384;2022-08-16T05:44:47;1.24;;;0.23;;
65605;SDS011;52276;48.906;2.384;2022-08-16T05:45:47;1.14;;;0.28;;
65605;SDS011;52276;48.906;2.384;2022-08-16T05:46:47;1.03;;;0.18;;
65605;SDS011;52276;48.906;2.384;2022-08-16T05:47:47;1.12;;;0.22;;
65605;SDS011;52276;48.906;2.384;2022-08-16T05:48:47;0.95;;;0.19;;
65605;SDS011;52276;48.906;2.384;2022-08-16T05:49:47;1.03;;;0.18;;
65605;SDS011;52276;48.906;2.384;2022-08-16T05:50:47;0.96;;;0.2;;
65605;SDS011;52276;48.906;2.384;2022-08-16T05:51:47;1.02;;;0.23;;
65605;SDS011;52276;48.906;2.384;2022-08-16T05:52:47;0.95;;;0.13;;
65605;SDS011;52276;48.906;2.384;2022-08-16T05:53:47;0.96;;;0.23;;
65605;SDS011;52276;48.906;2.384;2022-08-16T05:54:47;0.92;;;0.12;;
65605;SDS011;52276;48.906;2.384;2022-08-16T05:55:47;1.01;;;0.2;;
65605;SDS011;52276;48.906;2.384;2022-08-16T05:56:47;1.02;;;0.18;;
65605;SDS011;52276;48.906;2.384;2022-08-16T05:57:47;1.06;;;0.24;;
65605;SDS011;52276;48.906;2.384;2022-08-16T05:58:47;1.01;;;0.24;;
65605;SDS011;52276;48.906;2.384;2022-08-16T05:59:47;0.97;;;0.2;;
65605;SDS011;52276;48.906;2.384;2022-08-16T06:00:47;1;;;0.22;;
65605;SDS011;52276;48.906;2.384;2022-08-16T06:01:47;1.05;;;0.24;;
65605;SDS011;52276;48.906;2.384;2022-08-16T06:02:47;1.1;;;0.29;;